Time;durP1;ratioP1;P1;durP2;ratioP2;P2;SDS_P1;SDS_P2;PMS_P1;PMS_P2;Temp;Humidity;BMP_temperature;BMP_pressure;BME280_temperature;BME280_humidity;BME280_pressure;Samples;Min_cycle;Max_cycle;Signal;HPM_P1;HPM_P2
2021/09/24 00:00:30;;;;;;;14.02;3.22;;;13.70;99.90;;;;;;6187696;23;20027;-72
2021/09/24 00:02:56;;;;;;;13.25;2.85;;;13.70;99.90;;;;;;6188695;23;20016;-71
2021/09/24 00:05:22;;;;;;;14.88;2.67;;;13.80;99.90;;;;;;6213250;23;20022;-72
2021/09/24 00:07:49;;;;;;;18.88;3.25;;;13.70;99.90;;;;;;6163724;23;20162;-72
2021/09/24 00:10:17;;;;;;;21.33;2.85;;;13.70;99.90;;;;;;6187745;23;20021;-71
2021/09/24 00:12:42;;;;;;;12.13;2.50;;;13.80;99.90;;;;;;6213284;23;20016;-72
2021/09/24 00:15:13;;;;;;;15.65;3.00;;;13.80;99.90;;;;;;6188417;23;20051;-71
2021/09/24 00:17:39;;;;;;;17.55;3.30;;;13.80;99.90;;;;;;6213484;23;20024;-72
2021/09/24 00:20:09;;;;;;;22.65;3.50;;;13.80;99.90;;;;;;6189165;23;20020;-72
2021/09/24 00:22:36;;;;;;;18.92;2.80;;;13.80;99.90;;;;;;6188119;23;20046;-72
2021/09/24 00:25:05;;;;;;;16.33;3.08;;;13.80;99.90;;;;;;6188285;23;20024;-72
2021/09/24 00:27:31;;;;;;;15.40;2.70;;;13.80;99.90;;;;;;6139503;23;20020;-71
2021/09/24 00:29:57;;;;;;;17.42;2.72;;;13.80;99.90;;;;;;6213827;23;20042;-71
2021/09/24 00:32:23;;;;;;;15.15;3.00;;;13.80;99.90;;;;;;6186948;23;20024;-71
2021/09/24 00:34:50;;;;;;;13.70;3.38;;;13.80;99.90;;;;;;6212511;23;20020;-71
2021/09/24 00:37:16;;;;;;;20.08;3.20;;;13.80;99.90;;;;;;6210972;23;20027;-71
2021/09/24 00:39:42;;;;;;;18.35;3.13;;;13.80;99.90;;;;;;6211921;23;20043;-71
2021/09/24 00:42:07;;;;;;;15.85;2.85;;;13.80;99.90;;;;;;6212301;23;20019;-71
2021/09/24 00:44:42;;;;;;;17.10;3.10;;;13.90;99.90;;;;;;6212164;23;20480;-71
2021/09/24 00:47:08;;;;;;;18.65;3.00;;;13.90;99.90;;;;;;6212575;23;20024;-71
2021/09/24 00:49:34;;;;;;;19.33;3.30;;;13.90;99.90;;;;;;6212814;23;20012;-71
2021/09/24 00:52:00;;;;;;;19.45;3.30;;;13.90;99.90;;;;;;6214609;23;20041;-71
2021/09/24 00:54:27;;;;;;;20.50;3.13;;;13.90;99.90;;;;;;6189279;23;20020;-71
2021/09/24 00:56:53;;;;;;;14.60;2.30;;;13.90;99.90;;;;;;6189620;23;20023;-71
2021/09/24 00:59:19;;;;;;;12.30;2.60;;;13.90;99.90;;;;;;6164181;23;20012;-72
2021/09/24 01:01:48;;;;;;;22.33;3.67;;;13.90;99.90;;;;;;6188785;23;20016;-71
2021/09/24 01:04:14;;;;;;;13.95;2.88;;;13.90;99.90;;;;;;6165926;23;20726;-71
2021/09/24 01:06:40;;;;;;;12.95;2.75;;;13.90;99.90;;;;;;6163099;23;20055;-71
2021/09/24 01:09:06;;;;;;;12.82;2.75;;;13.90;99.90;;;;;;6188311;23;20020;-71
2021/09/24 01:11:36;;;;;;;12.95;2.42;;;13.90;99.90;;;;;;6189503;23;20020;-71
2021/09/24 01:14:05;;;;;;;;;;;13.90;99.90;;;;;;6189446;23;20495;-71
2021/09/24 01:16:34;;;;;;;16.13;2.90;;;13.80;99.90;;;;;;6212768;23;19927;-71
2021/09/24 01:19:00;;;;;;;12.32;3.00;;;13.80;99.90;;;;;;6214245;23;20468;-71
2021/09/24 01:21:25;;;;;;;19.30;3.28;;;13.80;99.90;;;;;;6189191;23;20012;-71
2021/09/24 01:23:52;;;;;;;11.18;2.75;;;13.80;99.90;;;;;;6189265;23;20832;-71
2021/09/24 01:26:18;;;;;;;15.07;2.80;;;13.80;99.90;;;;;;6164423;23;20092;-71
2021/09/24 01:28:47;;;;;;;10.45;2.50;;;13.80;99.90;;;;;;6214367;23;20063;-71
2021/09/24 01:31:14;;;;;;;15.23;2.80;;;13.80;99.90;;;;;;6214437;23;20449;-71
2021/09/24 01:33:44;;;;;;;10.20;2.47;;;13.80;99.90;;;;;;6189025;23;20016;-72
2021/09/24 01:36:10;;;;;;;;;;;13.70;99.90;;;;;;6163790;23;20020;-71
2021/09/24 01:38:37;;;;;;;14.90;2.90;;;13.70;99.90;;;;;;6214459;23;20356;-71
2021/09/24 01:41:03;;;;;;;15.43;2.92;;;13.70;99.90;;;;;;6214114;23;20016;-71
2021/09/24 01:43:30;;;;;;;15.00;2.78;;;13.70;99.90;;;;;;6214656;23;20016;-71
2021/09/24 01:45:56;;;;;;;9.70;2.63;;;13.70;99.90;;;;;;6214366;23;20059;-71
2021/09/24 01:48:22;;;;;;;14.35;3.00;;;13.70;99.90;;;;;;6214368;23;20024;-71
2021/09/24 01:50:47;;;;;;;10.57;2.85;;;13.70;99.90;;;;;;6214564;23;20344;-71
2021/09/24 01:53:13;;;;;;;14.52;2.83;;;13.70;99.90;;;;;;6187597;23;20107;-71
2021/09/24 01:55:39;;;;;;;17.08;3.38;;;13.80;99.90;;;;;;6214080;23;20054;-70
2021/09/24 01:58:05;;;;;;;12.70;2.80;;;13.80;99.90;;;;;;6189135;23;20020;-71
2021/09/24 02:00:34;;;;;;;15.85;3.28;;;13.80;99.90;;;;;;6187744;23;20334;-71
2021/09/24 02:03:00;;;;;;;16.63;3.33;;;13.80;99.90;;;;;;6212198;23;20016;-71
2021/09/24 02:05:26;;;;;;;18.08;2.95;;;13.80;99.90;;;;;;6189794;23;20456;-71
2021/09/24 02:07:51;;;;;;;16.17;3.63;;;13.80;99.90;;;;;;6215044;23;20086;-71
2021/09/24 02:10:17;;;;;;;14.60;3.17;;;13.80;99.90;;;;;;6213855;23;20020;-71
2021/09/24 02:12:43;;;;;;;16.58;3.20;;;13.80;99.90;;;;;;6189730;23;20317;-71
2021/09/24 02:15:10;;;;;;;14.20;3.20;;;13.80;99.90;;;;;;6188929;23;20020;-71
2021/09/24 02:17:36;;;;;;;14.13;3.00;;;13.90;99.90;;;;;;6214444;23;20054;-71
2021/09/24 02:20:06;;;;;;;14.15;2.78;;;13.90;99.90;;;;;;6214447;23;20020;-71
2021/09/24 02:22:35;;;;;;;15.07;3.28;;;13.90;99.90;;;;;;6189514;23;20016;-71
2021/09/24 02:25:01;;;;;;;18.77;3.15;;;14.00;99.90;;;;;;6214501;23;20031;-71
2021/09/24 02:27:26;;;;;;;15.60;3.17;;;13.90;99.90;;;;;;6188398;23;20024;-71
2021/09/24 02:29:52;;;;;;;10.32;2.50;;;13.90;99.90;;;;;;6189579;23;20028;-71
2021/09/24 02:32:18;;;;;;;13.27;3.00;;;14.00;99.90;;;;;;6189473;23;20034;-71
2021/09/24 02:34:44;;;;;;;11.65;2.90;;;14.00;99.90;;;;;;6214080;23;20043;-71
2021/09/24 02:37:09;;;;;;;15.52;3.03;;;14.00;99.90;;;;;;6188146;23;20020;-71
2021/09/24 02:39:35;;;;;;;14.63;3.28;;;14.00;99.90;;;;;;6188699;23;20077;-71
2021/09/24 02:42:02;;;;;;;17.50;3.00;;;14.00;99.90;;;;;;6214393;23;20016;-71
2021/09/24 02:44:27;;;;;;;11.75;2.75;;;14.00;99.90;;;;;;6188997;23;20472;-71
2021/09/24 02:46:53;;;;;;;12.90;2.72;;;14.00;99.90;;;;;;6188613;23;20020;-71
2021/09/24 02:49:19;;;;;;;11.45;2.83;;;14.00;99.90;;;;;;6188928;23;20103;-71
2021/09/24 02:51:44;;;;;;;17.88;3.20;;;14.00;99.90;;;;;;6189159;23;20441;-71
2021/09/24 02:54:11;;;;;;;14.07;3.35;;;14.00;99.90;;;;;;6138706;23;20024;-71
2021/09/24 02:56:36;;;;;;;10.05;2.45;;;14.00;99.90;;;;;;6186960;23;20340;-71
2021/09/24 02:59:05;;;;;;;15.18;3.08;;;14.10;99.90;;;;;;6187371;23;20017;-71
2021/09/24 03:01:34;;;;;;;11.38;2.47;;;14.10;99.90;;;;;;6212206;23;20709;-71
2021/09/24 03:04:00;;;;;;;12.25;3.13;;;14.10;99.90;;;;;;6188925;23;20054;-71
2021/09/24 03:06:26;;;;;;;18.92;3.15;;;14.10;99.90;;;;;;6187586;23;20070;-71
2021/09/24 03:08:52;;;;;;;11.10;2.75;;;14.10;99.90;;;;;;6188449;23;20016;-71
2021/09/24 03:11:18;;;;;;;12.75;3.03;;;14.10;99.90;;;;;;6162639;23;20028;-71
2021/09/24 03:13:44;;;;;;;11.57;3.05;;;14.20;99.90;;;;;;6187681;23;20016;-71
2021/09/24 03:16:11;;;;;;;13.85;3.20;;;14.20;99.90;;;;;;6187785;23;20070;-71
2021/09/24 03:18:37;;;;;;;10.95;2.67;;;14.20;99.90;;;;;;6188121;23;20016;-72
2021/09/24 03:21:03;;;;;;;15.52;2.88;;;14.20;99.90;;;;;;6188505;23;20020;-72
2021/09/24 03:23:29;;;;;;;10.55;2.10;;;14.20;99.90;;;;;;6186990;23;20341;-72
2021/09/24 03:25:55;;;;;;;13.95;3.33;;;14.20;99.90;;;;;;6213175;23;20087;-72
2021/09/24 03:28:20;;;;;;;12.38;2.97;;;14.20;99.90;;;;;;6187753;23;20505;-71
2021/09/24 03:30:46;;;;;;;18.98;3.20;;;14.30;99.90;;;;;;6213250;23;20448;-72
2021/09/24 03:33:12;;;;;;;12.20;2.70;;;14.20;99.90;;;;;;6163546;23;20051;-71
2021/09/24 03:35:38;;;;;;;12.05;2.60;;;14.30;99.90;;;;;;6212592;23;20020;-72
2021/09/24 03:38:04;;;;;;;13.45;2.63;;;14.30;99.90;;;;;;6213167;23;20016;-72
2021/09/24 03:40:29;;;;;;;13.18;3.03;;;14.30;99.90;;;;;;6187895;23;20017;-72
2021/09/24 03:42:58;;;;;;;11.88;2.85;;;14.30;99.90;;;;;;6213127;23;20020;-71
2021/09/24 03:45:24;;;;;;;10.23;2.63;;;14.30;99.90;;;;;;6212902;23;20084;-71
2021/09/24 03:47:50;;;;;;;8.98;2.70;;;14.30;99.90;;;;;;6213567;23;20042;-72
2021/09/24 03:50:16;;;;;;;12.40;2.60;;;14.30;99.90;;;;;;6163702;23;20445;-72
2021/09/24 03:52:41;;;;;;;14.60;2.75;;;14.30;99.90;;;;;;6188184;23;20456;-72
2021/09/24 03:55:08;;;;;;;13.63;2.75;;;14.30;99.90;;;;;;6188130;23;20020;-72
2021/09/24 03:57:34;;;;;;;8.85;2.25;;;14.30;99.90;;;;;;6187500;23;20353;-72
2021/09/24 04:00:00;;;;;;;12.27;2.38;;;14.30;99.90;;;;;;6188168;23;20016;-71
2021/09/24 04:02:25;;;;;;;13.00;3.05;;;14.40;99.90;;;;;;6185667;23;20070;-71
2021/09/24 04:04:51;;;;;;;13.80;2.90;;;14.30;99.90;;;;;;6213546;23;20035;-72
2021/09/24 04:07:19;;;;;;;11.55;2.80;;;14.40;99.90;;;;;;6213110;23;20021;-71
2021/09/24 04:09:45;;;;;;;11.65;2.38;;;14.40;99.90;;;;;;6212548;23;20332;-71
2021/09/24 04:12:11;;;;;;;9.40;2.53;;;14.40;99.90;;;;;;6188345;23;20023;-71
2021/09/24 04:14:37;;;;;;;10.30;2.22;;;14.40;99.90;;;;;;6187041;23;20016;-71
2021/09/24 04:17:03;;;;;;;10.23;2.58;;;14.40;99.90;;;;;;6213583;23;20074;-72
2021/09/24 04:19:29;;;;;;;13.40;2.42;;;14.40;99.90;;;;;;6213407;23;20504;-72
2021/09/24 04:21:55;;;;;;;12.80;2.47;;;14.40;99.90;;;;;;6188915;23;20095;-72
2021/09/24 04:24:21;;;;;;;12.85;2.88;;;14.40;99.90;;;;;;6214417;23;20399;-71
2021/09/24 04:26:46;;;;;;;11.63;2.53;;;14.50;99.90;;;;;;6190262;23;20058;-71
2021/09/24 04:29:12;;;;;;;10.82;2.72;;;14.50;99.90;;;;;;6215644;23;20039;-72
2021/09/24 04:31:38;;;;;;;11.85;2.40;;;14.50;99.90;;;;;;6189298;23;20016;-72
2021/09/24 04:34:04;;;;;;;9.98;2.55;;;14.50;99.90;;;;;;6165164;23;20070;-71
2021/09/24 04:36:29;;;;;;;15.98;3.05;;;14.50;99.90;;;;;;6214546;23;20105;-72
2021/09/24 04:38:57;;;;;;;9.85;2.72;;;14.50;99.90;;;;;;6215041;23;20022;-72
2021/09/24 04:41:23;;;;;;;15.77;2.90;;;14.50;99.90;;;;;;6140899;23;20020;-71
2021/09/24 04:43:49;;;;;;;10.02;3.10;;;14.60;99.90;;;;;;6190178;23;20022;-72
2021/09/24 04:46:15;;;;;;;17.77;4.10;;;14.60;99.90;;;;;;6189801;23;20051;-72
2021/09/24 04:48:41;;;;;;;13.60;3.45;;;14.60;99.90;;;;;;6189156;23;20027;-71
2021/09/24 04:51:06;;;;;;;13.32;3.78;;;14.60;99.90;;;;;;6215842;23;20016;-72
2021/09/24 04:53:32;;;;;;;18.10;3.88;;;14.60;99.90;;;;;;6190042;23;20020;-72
2021/09/24 04:55:58;;;;;;;14.40;3.90;;;14.60;99.90;;;;;;6190746;23;20409;-72
2021/09/24 04:58:24;;;;;;;12.10;3.50;;;14.60;99.90;;;;;;6212543;23;20023;-72
2021/09/24 05:00:50;;;;;;;15.20;4.60;;;14.60;99.90;;;;;;6189426;23;20103;-71
2021/09/24 05:03:16;;;;;;;10.73;3.47;;;14.60;99.90;;;;;;6164409;23;20595;-71
2021/09/24 05:05:42;;;;;;;12.82;3.47;;;14.70;99.90;;;;;;6189225;23;20349;-71
2021/09/24 05:08:07;;;;;;;11.98;3.67;;;14.70;99.90;;;;;;6190230;23;20020;-72
2021/09/24 05:10:33;;;;;;;10.80;3.42;;;14.70;99.90;;;;;;6164548;23;20468;-71
2021/09/24 05:12:59;;;;;;;10.15;3.97;;;14.70;99.90;;;;;;6215239;23;20211;-71
2021/09/24 05:15:27;;;;;;;14.57;3.30;;;14.70;99.90;;;;;;6188719;23;20020;-72
2021/09/24 05:17:53;;;;;;;12.10;3.67;;;14.70;99.90;;;;;;6212027;23;20020;-72
2021/09/24 05:20:18;;;;;;;13.95;4.20;;;14.70;99.90;;;;;;6162990;23;20656;-72
2021/09/24 05:22:44;;;;;;;12.32;3.88;;;14.70;99.90;;;;;;6213128;23;20016;-71
2021/09/24 05:25:11;;;;;;;17.40;4.03;;;14.70;99.90;;;;;;6189324;23;20026;-71
2021/09/24 05:27:37;;;;;;;16.65;3.90;;;14.80;99.90;;;;;;6137191;23;20449;-71
2021/09/24 05:30:05;;;;;;;16.75;5.30;;;14.80;99.90;;;;;;6188714;23;20051;-72
2021/09/24 05:32:31;;;;;;;16.95;4.50;;;14.80;99.90;;;;;;6212214;23;20519;-71
2021/09/24 05:34:57;;;;;;;14.90;4.80;;;14.80;99.90;;;;;;6214293;23;20012;-71
2021/09/24 05:37:23;;;;;;;15.07;5.55;;;14.80;99.90;;;;;;6188284;23;20075;-71
2021/09/24 05:39:51;;;;;;;15.00;5.93;;;14.80;99.90;;;;;;6188705;23;20104;-72
2021/09/24 05:42:17;;;;;;;14.30;5.47;;;14.80;99.90;;;;;;6186183;23;20012;-72
2021/09/24 05:44:43;;;;;;;16.67;5.72;;;14.80;99.90;;;;;;6213536;23;20070;-71
2021/09/24 05:47:09;;;;;;;15.50;6.43;;;14.80;99.90;;;;;;6187452;23;20484;-71
2021/09/24 05:49:35;;;;;;;14.45;5.97;;;14.80;99.90;;;;;;6210208;23;20456;-72
2021/09/24 05:52:01;;;;;;;16.25;6.00;;;14.80;99.90;;;;;;6193815;23;20069;-71
2021/09/24 05:54:27;;;;;;;17.38;6.97;;;14.80;99.90;;;;;;6187352;23;20145;-70
2021/09/24 05:56:54;;;;;;;18.40;6.45;;;14.80;99.90;;;;;;6212512;23;20047;-72
2021/09/24 05:59:21;;;;;;;16.38;6.22;;;14.80;99.90;;;;;;6211624;23;20349;-72
2021/09/24 06:01:48;;;;;;;11.98;5.63;;;14.80;99.90;;;;;;6211022;23;20452;-72
2021/09/24 06:04:16;;;;;;;15.90;6.65;;;14.80;99.90;;;;;;6212453;23;20019;-73
2021/09/24 06:06:42;;;;;;;16.67;6.38;;;14.80;99.90;;;;;;6187811;23;20018;-73
2021/09/24 06:09:09;;;;;;;15.80;5.88;;;14.80;99.90;;;;;;6187975;23;20082;-73
2021/09/24 06:11:35;;;;;;;16.83;7.35;;;14.80;99.90;;;;;;6213322;23;20370;-73
2021/09/24 06:14:04;;;;;;;18.48;6.55;;;14.80;99.90;;;;;;6164648;23;20055;-73
2021/09/24 06:16:31;;;;;;;12.80;6.00;;;14.80;99.90;;;;;;6213725;23;20020;-73
2021/09/24 06:18:57;;;;;;;17.33;6.88;;;14.80;99.90;;;;;;6164770;23;20448;-73
2021/09/24 06:21:24;;;;;;;16.38;6.22;;;14.80;99.90;;;;;;6164188;23;20023;-73
2021/09/24 06:23:50;;;;;;;17.63;6.18;;;14.80;99.90;;;;;;6214230;23;20017;-73
2021/09/24 06:26:16;;;;;;;12.90;5.47;;;14.80;99.90;;;;;;6189623;23;20094;-73
2021/09/24 06:28:41;;;;;;;15.27;5.40;;;14.90;99.90;;;;;;6214154;23;20512;-73
2021/09/24 06:31:07;;;;;;;14.90;5.18;;;14.90;99.90;;;;;;6214333;23;20012;-72
2021/09/24 06:33:33;;;;;;;13.65;5.43;;;14.80;99.90;;;;;;6213673;23;20027;-73
2021/09/24 06:35:59;;;;;;;14.25;5.30;;;14.90;99.90;;;;;;6188449;23;20467;-73
2021/09/24 06:38:28;;;;;;;14.93;5.85;;;14.90;99.90;;;;;;6189114;23;20015;-72
2021/09/24 06:40:54;;;;;;;12.98;4.80;;;14.90;99.90;;;;;;6188903;23;20024;-72
2021/09/24 06:43:20;;;;;;;16.38;5.63;;;14.90;99.90;;;;;;6214322;23;20095;-72
2021/09/24 06:45:46;;;;;;;16.17;5.03;;;14.90;99.90;;;;;;6213160;23;20070;-73
2021/09/24 06:48:12;;;;;;;12.45;5.22;;;14.90;99.90;;;;;;6188478;23;20020;-73
2021/09/24 06:50:38;;;;;;;15.23;5.40;;;15.00;99.90;;;;;;6188092;23;20478;-73
2021/09/24 06:53:04;;;;;;;16.60;5.15;;;15.00;99.90;;;;;;6214566;23;20059;-73
2021/09/24 06:55:31;;;;;;;9.13;4.30;;;15.00;99.90;;;;;;6214203;23;20453;-73
2021/09/24 06:57:57;;;;;;;14.38;4.45;;;15.00;99.90;;;;;;6189308;23;20732;-73
2021/09/24 07:00:25;;;;;;;14.43;5.43;;;15.10;99.90;;;;;;6188663;23;20388;-72
2021/09/24 07:02:50;;;;;;;11.77;4.95;;;15.10;99.90;;;;;;6188158;23;20020;-73
2021/09/24 07:05:17;;;;;;;10.27;3.40;;;15.10;99.90;;;;;;6163899;23;20012;-73
2021/09/24 07:07:43;;;;;;;12.43;4.57;;;15.10;99.90;;;;;;6188325;23;20381;-72
2021/09/24 07:10:10;;;;;;;9.68;3.90;;;15.10;99.90;;;;;;6188679;23;20066;-73
2021/09/24 07:12:35;;;;;;;11.10;3.72;;;15.20;99.90;;;;;;6213614;23;20020;-73
2021/09/24 07:15:05;;;;;;;14.60;3.90;;;15.20;99.90;;;;;;6139563;23;20016;-73
2021/09/24 07:17:31;;;;;;;11.63;4.17;;;15.20;99.90;;;;;;6214271;23;20016;-73
2021/09/24 07:20:01;;;;;;;13.18;4.03;;;15.30;99.90;;;;;;6164574;23;20012;-72
2021/09/24 07:22:30;;;;;;;12.25;4.78;;;15.30;99.90;;;;;;6165424;23;20437;-72
2021/09/24 07:24:56;;;;;;;13.18;4.47;;;15.30;99.90;;;;;;6189244;23;20024;-71
2021/09/24 07:27:22;;;;;;;14.30;4.63;;;15.30;99.90;;;;;;6189590;23;20016;-71
2021/09/24 07:29:49;;;;;;;11.05;4.50;;;15.30;99.90;;;;;;6188477;23;20012;-71
2021/09/24 07:32:16;;;;;;;12.57;5.22;;;15.30;99.90;;;;;;6164204;23;20020;-71
2021/09/24 07:34:43;;;;;;;9.57;4.75;;;15.40;99.90;;;;;;6163536;23;20024;-72
2021/09/24 07:37:10;;;;;;;10.63;4.00;;;15.40;99.90;;;;;;6164262;23;20138;-71
2021/09/24 07:39:37;;;;;;;14.05;4.40;;;15.40;99.90;;;;;;6213808;23;20367;-72
2021/09/24 07:42:03;;;;;;;14.55;4.53;;;15.40;99.90;;;;;;6213702;23;20020;-72
2021/09/24 07:44:30;;;;;;;13.98;4.93;;;15.40;99.90;;;;;;6139783;23;20030;-71
2021/09/24 07:46:55;;;;;;;13.75;4.75;;;15.40;99.90;;;;;;6187882;23;20074;-71
2021/09/24 07:49:21;;;;;;;10.02;4.45;;;15.50;99.90;;;;;;6213859;23;20519;-71
2021/09/24 07:51:47;;;;;;;9.82;4.28;;;15.50;99.90;;;;;;6187166;23;20143;-72
2021/09/24 07:54:13;;;;;;;15.98;4.80;;;15.50;99.90;;;;;;6163409;23;20154;-72
2021/09/24 07:56:38;;;;;;;10.13;4.57;;;15.50;99.90;;;;;;6188054;23;20466;-71
2021/09/24 07:59:04;;;;;;;12.88;4.47;;;15.50;99.90;;;;;;6182794;23;20024;-71
2021/09/24 08:01:30;;;;;;;11.13;5.18;;;15.60;99.90;;;;;;6207393;23;20218;-71
2021/09/24 08:03:56;;;;;;;11.80;4.50;;;15.60;99.90;;;;;;6208108;23;20025;-71
2021/09/24 08:06:22;;;;;;;13.68;4.22;;;15.60;99.90;;;;;;6183592;23;20029;-71
2021/09/24 08:08:48;;;;;;;11.02;4.57;;;15.60;99.90;;;;;;6183031;23;20083;-71
2021/09/24 08:11:15;;;;;;;10.98;4.82;;;15.70;99.90;;;;;;6208176;23;20019;-72
2021/09/24 08:13:41;;;;;;;10.68;3.88;;;15.70;99.90;;;;;;6207745;23;20457;-72
2021/09/24 08:16:08;;;;;;;13.65;4.75;;;15.70;99.90;;;;;;6207798;23;20021;-72
2021/09/24 08:18:34;;;;;;;10.30;4.43;;;15.70;99.90;;;;;;6182568;23;20027;-71
2021/09/24 08:21:00;;;;;;;9.73;4.25;;;15.70;99.90;;;;;;6207482;23;20023;-72
2021/09/24 08:23:26;;;;;;;9.57;4.22;;;15.80;99.90;;;;;;6207502;23;20091;-71
2021/09/24 08:25:51;;;;;;;12.23;4.28;;;15.80;99.90;;;;;;6206681;23;20040;-72
2021/09/24 08:28:18;;;;;;;10.20;4.57;;;15.80;99.90;;;;;;6207473;23;20020;-72
2021/09/24 08:30:45;;;;;;;14.95;5.40;;;15.80;99.90;;;;;;6181697;23;20027;-71
2021/09/24 08:33:11;;;;;;;14.20;4.82;;;15.90;99.90;;;;;;6206185;23;20016;-72
2021/09/24 08:35:37;;;;;;;9.77;4.88;;;15.90;99.90;;;;;;6181880;23;20023;-72
2021/09/24 08:38:03;;;;;;;15.02;5.10;;;15.90;99.90;;;;;;6181158;23;20021;-72
2021/09/24 08:40:31;;;;;;;12.75;5.35;;;15.90;99.90;;;;;;6157403;23;20457;-73
2021/09/24 08:43:01;;;;;;;11.80;4.47;;;15.90;99.90;;;;;;6208002;23;20197;-72
2021/09/24 08:45:30;;;;;;;11.02;4.80;;;15.90;99.90;;;;;;6206021;23;20449;-72
2021/09/24 08:48:07;;;;;;;10.73;4.90;;;15.90;99.90;;;;;;6182568;23;20019;-72
2021/09/24 08:50:37;;;;;;;12.35;5.18;;;16.00;99.90;;;;;;6156736;23;20361;-72
2021/09/24 08:53:04;;;;;;;11.90;5.28;;;16.00;99.90;;;;;;6182763;23;20104;-71
2021/09/24 08:55:30;;;;;;;10.85;4.88;;;16.00;99.90;;;;;;6182978;23;20389;-72
2021/09/24 08:57:57;;;;;;;11.93;5.20;;;16.10;99.90;;;;;;6181664;23;20048;-72
2021/09/24 09:00:23;;;;;;;12.40;5.68;;;16.00;99.90;;;;;;6205787;23;20020;-71
2021/09/24 09:02:59;;;;;;;10.82;5.32;;;16.10;99.90;;;;;;6182474;23;20023;-72
2021/09/24 09:05:33;;;;;;;11.57;5.70;;;16.10;99.90;;;;;;6183044;23;20048;-72
2021/09/24 09:08:30;;;;;;;12.48;6.15;;;16.10;99.90;;;;;;6182420;23;20028;-72
2021/09/24 09:11:02;;;;;;;12.80;6.15;;;16.10;99.90;;;;;;6165560;23;20020;-72
2021/09/24 09:13:38;;;;;;;10.93;6.70;;;16.10;99.90;;;;;;6185072;23;20024;-72
2021/09/24 09:16:21;;;;;;;16.88;7.72;;;16.20;99.90;;;;;;6209952;23;20032;-72
2021/09/24 09:18:48;;;;;;;12.35;6.45;;;16.20;99.90;;;;;;6209918;23;20063;-72
2021/09/24 09:21:16;;;;;;;13.65;6.70;;;16.30;99.90;;;;;;6184180;23;20052;-72
2021/09/24 09:23:48;;;;;;;14.40;6.43;;;16.30;99.90;;;;;;6209679;23;20012;-72
2021/09/24 09:26:16;;;;;;;11.85;7.03;;;16.30;99.90;;;;;;6209560;23;20020;-72
2021/09/24 09:28:51;;;;;;;12.75;7.47;;;16.30;99.90;;;;;;6209878;23;20016;-72
2021/09/24 09:31:27;;;;;;;15.65;7.38;;;16.40;99.90;;;;;;6184564;23;20456;-72
2021/09/24 09:33:56;;;;;;;15.60;8.10;;;16.40;99.90;;;;;;6210042;23;20099;-72
2021/09/24 09:36:32;;;;;;;13.93;8.60;;;16.50;99.90;;;;;;6209141;23;20426;-72
2021/09/24 09:38:58;;;;;;;10.80;7.75;;;16.50;99.90;;;;;;6184666;23;20017;-72
2021/09/24 09:41:29;;;;;;;15.40;8.50;;;16.60;99.90;;;;;;6208717;23;20012;-72
2021/09/24 09:44:00;;;;;;;14.02;8.70;;;16.60;99.90;;;;;;6210545;23;20017;-72
2021/09/24 09:46:32;;;;;;;11.52;8.80;;;16.70;99.90;;;;;;6183927;23;20404;-72
2021/09/24 09:49:10;;;;;;;15.88;8.75;;;16.70;99.90;;;;;;6184718;23;20024;-72
2021/09/24 09:51:42;;;;;;;17.17;9.32;;;16.80;99.90;;;;;;6208423;23;20099;-71
2021/09/24 09:54:10;;;;;;;12.55;9.25;;;16.80;99.90;;;;;;6208765;23;20078;-73
2021/09/24 09:56:38;;;;;;;14.95;8.85;;;16.90;99.90;;;;;;6183855;23;20016;-72
2021/09/24 09:59:23;;;;;;;15.98;10.25;;;16.90;99.90;;;;;;6208197;23;20024;-73
2021/09/24 10:02:15;;;;;;;15.55;9.60;;;17.00;99.90;;;;;;6183358;23;20453;-73
2021/09/24 10:04:46;;;;;;;15.25;8.90;;;17.10;99.90;;;;;;6183735;23;20103;-73
2021/09/24 10:07:13;;;;;;;15.07;9.23;;;17.10;99.90;;;;;;6183673;23;20017;-72
2021/09/24 10:09:40;;;;;;;16.58;10.10;;;17.20;99.90;;;;;;6208482;23;20349;-73
2021/09/24 10:12:21;;;;;;;14.88;10.23;;;17.30;99.90;;;;;;6183295;23;20089;-72
2021/09/24 10:14:48;;;;;;;16.27;10.10;;;17.40;99.90;;;;;;6208724;23;20012;-72
2021/09/24 10:17:15;;;;;;;15.30;10.07;;;17.40;99.90;;;;;;6208112;23;20020;-73
2021/09/24 10:19:45;;;;;;;14.82;10.43;;;17.40;99.90;;;;;;6208456;23;20023;-73
2021/09/24 10:22:12;;;;;;;20.73;12.20;;;17.50;99.90;;;;;;6207135;23;20020;-71
2021/09/24 10:24:39;;;;;;;18.30;11.88;;;17.50;99.90;;;;;;6208503;23;20087;-73
2021/09/24 10:27:07;;;;;;;17.88;11.95;;;17.50;99.90;;;;;;6208460;23;20032;-73
2021/09/24 10:29:43;;;;;;;19.17;11.45;;;17.60;99.90;;;;;;6208392;23;20028;-73
2021/09/24 10:32:18;;;;;;;16.83;11.73;;;17.60;99.90;;;;;;6208311;23;20013;-72
2021/09/24 10:35:09;;;;;;;17.65;12.43;;;17.60;99.90;;;;;;6208053;23;20024;-72
2021/09/24 10:37:36;;;;;;;;;;;17.70;99.90;;;;;;6183525;23;20445;-73
2021/09/24 10:40:22;;;;;;;21.27;12.55;;;17.70;99.90;;;;;;6208800;23;20038;-74
2021/09/24 10:42:58;;;;;;;16.48;12.00;;;17.70;99.90;;;;;;6182060;23;20016;-73
2021/09/24 10:45:32;;;;;;;19.92;12.27;;;17.80;99.90;;;;;;6183180;23;20016;-74
2021/09/24 10:48:15;;;;;;;19.63;12.85;;;17.90;99.90;;;;;;6208875;23;20012;-73
2021/09/24 10:50:43;;;;;;;19.48;12.57;;;17.90;99.90;;;;;;6208127;23;20132;-73
2021/09/24 10:53:19;;;;;;;20.02;12.82;;;17.90;99.90;;;;;;6207633;23;20021;-73
2021/09/24 10:55:52;;;;;;;24.90;13.43;;;17.90;99.90;;;;;;6208884;23;20409;-73
2021/09/24 10:58:27;;;;;;;24.33;13.65;;;18.00;99.90;;;;;;6184175;23;20353;-74
2021/09/24 11:01:00;;;;;;;21.80;13.48;;;18.10;99.90;;;;;;6208141;23;20070;-73
2021/09/24 11:03:29;;;;;;;21.90;13.07;;;18.10;99.90;;;;;;6208690;23;20016;-73
2021/09/24 11:06:02;;;;;;;20.63;13.45;;;18.20;99.90;;;;;;6209308;23;20016;-73
2021/09/24 11:08:36;;;;;;;19.60;13.18;;;18.30;99.90;;;;;;6184333;23;20060;-73
2021/09/24 11:11:10;;;;;;;18.55;13.38;;;18.30;99.90;;;;;;6209033;23;20070;-73
2021/09/24 11:13:46;;;;;;;17.95;12.05;;;18.30;99.90;;;;;;6208657;23;20017;-73
2021/09/24 11:16:43;;;;;;;20.38;13.27;;;18.50;99.90;;;;;;6208603;23;20052;-73
2021/09/24 11:19:31;;;;;;;19.35;12.85;;;18.50;99.90;;;;;;6162197;23;20095;-73
2021/09/24 11:22:25;;;;;;;19.83;12.27;;;18.60;99.90;;;;;;6208405;23;20021;-74
2021/09/24 11:24:57;;;;;;;20.30;12.70;;;18.60;99.90;;;;;;6208599;23;20020;-73
2021/09/24 11:27:38;;;;;;;17.27;10.80;;;18.80;99.90;;;;;;6208890;23;20432;-74
2021/09/24 11:30:04;;;;;;;19.35;10.70;;;18.90;99.90;;;;;;6208885;23;20016;-74
2021/09/24 11:32:41;;;;;;;16.38;10.90;;;18.90;99.90;;;;;;6207799;23;20291;-73
2021/09/24 11:35:09;;;;;;;19.67;9.50;;;19.10;99.90;;;;;;6182972;23;20027;-73
2021/09/24 11:37:37;;;;;;;14.63;8.30;;;19.20;99.90;;;;;;6207423;23;20027;-73
2021/09/24 11:40:18;;;;;;;13.80;8.25;;;19.30;99.90;;;;;;6208409;23;20345;-73
2021/09/24 11:42:53;;;;;;;9.90;6.80;;;19.50;99.90;;;;;;6207339;23;20016;-73
2021/09/24 11:45:22;;;;;;;12.85;6.78;;;19.80;99.90;;;;;;6182634;23;20021;-74
2021/09/24 11:47:57;;;;;;;15.40;6.47;;;19.90;99.90;;;;;;6183078;23;20118;-73
2021/09/24 11:50:25;;;;;;;12.77;6.20;;;20.10;99.90;;;;;;6207884;23;20020;-73
2021/09/24 11:52:53;;;;;;;12.23;5.20;;;20.20;99.90;;;;;;6182424;23;20021;-74
2021/09/24 11:55:25;;;;;;;11.48;5.68;;;20.30;99.90;;;;;;6182164;23;20163;-73
2021/09/24 11:58:03;;;;;;;8.85;4.50;;;20.40;99.90;;;;;;6183340;23;20016;-73
2021/09/24 12:00:33;;;;;;;9.05;3.90;;;20.50;99.90;;;;;;6207882;23;20040;-74
2021/09/24 12:03:28;;;;;;;13.45;4.63;;;20.60;99.90;;;;;;6183012;23;20024;-73
2021/09/24 12:05:57;;;;;;;11.18;5.45;;;20.60;99.90;;;;;;6208075;23;20021;-75
2021/09/24 12:08:27;;;;;;;9.63;4.80;;;20.60;99.90;;;;;;6207331;23;20515;-73
2021/09/24 12:10:56;;;;;;;;;;;20.60;99.90;;;;;;6208220;23;20017;-71
2021/09/24 12:13:22;;;;;;;9.10;4.35;;;20.60;99.90;;;;;;6207784;23;19916;-70
2021/09/24 12:15:59;;;;;;;12.45;4.72;;;20.60;99.80;;;;;;6182128;23;20074;-71
2021/09/24 12:18:44;;;;;;;13.02;5.45;;;20.60;99.10;;;;;;6207136;23;20016;-72
2021/09/24 12:21:11;;;;;;;9.07;5.57;;;20.50;99.10;;;;;;6182524;23;20013;-73
2021/09/24 12:23:37;;;;;;;10.50;6.13;;;20.50;98.70;;;;;;6157562;23;20651;-73
2021/09/24 12:26:08;;;;;;;11.70;5.22;;;20.50;98.90;;;;;;6208190;23;20023;-72
2021/09/24 12:28:35;;;;;;;10.00;5.78;;;20.40;98.20;;;;;;6207207;23;20020;-74
2021/09/24 12:31:04;;;;;;;8.90;5.43;;;20.40;99.20;;;;;;6183133;23;20017;-73
2021/09/24 12:33:30;;;;;;;11.50;6.13;;;20.50;99.60;;;;;;6182779;23;20105;-73
2021/09/24 12:36:06;;;;;;;9.25;4.82;;;20.50;99.00;;;;;;6206221;23;20090;-71
2021/09/24 12:38:35;;;;;;;9.00;5.50;;;20.50;98.60;;;;;;6207282;23;20071;-71
2021/09/24 12:41:19;;;;;;;10.20;5.32;;;20.50;99.30;;;;;;6183003;23;20052;-73
2021/09/24 12:43:46;;;;;;;13.05;5.35;;;20.70;99.10;;;;;;6181458;23;20401;-72